Rang Dossard Nom Prénom Sexe Class Sx Cat. Class Cat. Club Temps Ecart Moy.
1 300 Bastien TERRANOVA M 1 M1 1 TEAM EUROP ENERGIE 2:24:46 -- 34.8
2 23 Hugo VIORT M 2 M1 2 MARTIGUES 2:24:48 +00:02 34.8
3 604 Florian LOPEZ M 3 M1 3 2:24:50 +00:04 34.8
4 41 Digan SCHIARI MULLER M 4 M1 4 BRIANCON SERRE CHEVALIER CYCLISME 2:24:50 +00:04 34.7
5 556 Remy THELIER M 5 M1 5 LEVENS VTT 2:24:50 +00:04 34.7
6 567 Adrien MAIRE M 6 M1 6 AVCA 2:24:51 +00:05 34.7
7 591 Ianis MARTIN M 7 M1 7 EC- SAINT CYRIENNE 2:24:51 +00:05 34.7
8 10 Nicolas AGNEL M 8 M1 8 RO SANARY 2:24:51 +00:05 34.7
9 511 Renaud CASTIGLIONI M 9 M2 1 2:24:51 +00:05 34.7
10 653 Killian DEMANGEON M 10 M1 9 MISTRAL ADVENTURA 2:25:08 +00:22 34.7
11 534 Jean-Luc CASTALDO M 11 M2 2 AVCA 2:26:18 +01:32 34.4
12 367 Remi AVIGNON M 12 M2 3 CC ALLEINS TEAM ALCT 2:26:24 +01:38 34.4
13 4 Lionel SERES M 13 M3 1 MASSALIA CYCLISME 2:26:24 +01:38 34.4
14 489 Thomas SANZ M 14 M2 4 TEAM CALVISSON VTT 2:26:24 +01:38 34.4
15 30 Theo DERRIEU M 15 M1 10 AIX VTT 2:26:25 +01:39 34.4
16 580 Nyzar KABLY M 16 M1 11 LA POMME MARSEILLE 2:26:25 +01:39 34.4
17 544 Vincent TOLMAU M 17 M1 12 2:26:27 +01:41 34.4
18 39 Bastien CRÉTÉ M 18 M1 13 VCA 2:26:54 +02:08 34.3
19 12 Pierre CARLES M 19 M1 14 RO SANARY 2:27:05 +02:19 34.2
20 154 Frédéric BABONAUX M 20 M1 15 2:27:19 +02:33 34.2
21 1182 Joris FIGUEIRA M 21 M1 16 VC MIRAMAS 2:27:21 +02:35 34.2
22 364 Jérome CARRERE M 22 M3 2 CC ALLEINS TEAM ALCT 2:27:22 +02:36 34.2
23 555 Loic TOURNILLON M 23 M1 17 AMSL VTT LEVENS 2:27:22 +02:36 34.2
24 275 Patrick MANTO M 24 M6 1 CSC LA CIOTAT 2:27:22 +02:36 34.2
25 535 Mikaël REILHAN M 25 M3 3 VC MONT AIGOUAL PAYS VIGANAIS 2:27:23 +02:37 34.1
26 7 Jean-Philippe MANDELLI M 26 M4 1 VTT DU GARLABAN 2:27:23 +02:37 34.1
27 624 Noah ROKIA M 27 M1 18 AVC AIX EN PROVENCE 2:27:23 +02:37 34.1
28 510 Jean FEILLEUX M 28 M1 19 TEAM ALCT 2:27:23 +02:37 34.1
29 509 Alexis NIORD M 29 M1 20 CS LA BOUILLADISSE 2:27:23 +02:37 34.1
30 228 Alexandre GALLET M 30 M1 21 2:27:24 +02:38 34.1
31 578 Pierre PULS M 31 M1 22 VC LA POMME 2:27:24 +02:38 34.1
32 1 Nicolas HERBÉ M 32 M1 23 2:27:26 +02:40 34.1
33 19 Baptiste ABAD M 33 M1 24 2:27:26 +02:40 34.1
34 617 Loïc PHILIPPE M 34 M3 4 2:27:26 +02:40 34.1
35 457 Jen-Mary ROUSSELET M 35 M5 1 CCC CAGNES/S/MER 2:27:28 +02:42 34.1
36 662 Benjamin CONTRI M 36 M1 25 AS CARNOUX 2:27:30 +02:44 34.1
37 1055 Olivier DAUMAS M 37 M2 5 VÉLO CLUB LES ANGLES 2:27:31 +02:45 34.1
38 530 Joris SIMOND M 38 M1 26 COURCHEVEL SPORTS OUTDOOR 2:27:31 +02:45 34.1
39 379 Olivier BOULAN M 39 M4 2 ALCT 2:27:33 +02:47 34.1
40 27 Christophe PORTAL M 40 M5 2 AIX VTT 2:27:47 +03:01 34.1
41 420 Frédéric GAETHOFS M 41 M3 5 2:27:47 +03:01 34.1
42 18 Guillaume MOTET M 42 M1 27 2:27:52 +03:06 34
43 276 Victor LEROY M 43 M1 28 BÉZIERS MÉDITERRANÉE CYCLISME 2:28:36 +03:50 33.9
44 32 Thomas LOUIS M 44 M1 29 AIX VTT 2:28:55 +04:09 33.8
45 1132 Thomas RICHARD M 45 M1 30 VC ÉGUILLEN 2:28:57 +04:11 33.8
46 301 Claude-Olivier FONTAINE M 46 M2 6 2:29:17 +04:31 33.7
47 485 Gaultier COSTAGLI M 47 M1 31 VÉLO CLUB PENNOIS 2:29:22 +04:36 33.7
48 672 Cedric LAMIRAUX M 48 M1 32 GALLARDO SPORTS 2:29:23 +04:37 33.7
49 663 Nicolas FERAUD M 49 M1 33 2:29:23 +04:37 33.7
50 597 Victor LETREGUILLY M 50 M1 34 2:29:31 +04:45 33.7
51 292 Richard PICANO M 51 M1 35 VELO CLUB DE MARSEILLE 2:29:32 +04:46 33.7
52 289 Nicolas BÜSCH M 52 M3 6 2:29:33 +04:47 33.7
53 646 Bruno CAZASSUS M 53 M4 3 VCA 2:29:33 +04:47 33.7
54 368 Renaud COURTILLET M 54 M1 36 VÉLO CLUB MARSEILLE 2:29:34 +04:48 33.6
55 528 Frédéric AUTRIC M 55 M4 4 2:29:36 +04:50 33.6
56 641 Nicolas AURAN M 56 M1 37 2:29:36 +04:50 33.6
57 208 Frédéric DENIZOT M 57 M3 7 VTT DU GARLABAN 2:29:37 +04:51 33.6
58 667 Denis BAUDRON M 58 M2 7 GALLARDO SPORTS 2:29:38 +04:52 33.6
59 373 Rémi ALAZARD M 59 M1 38 2:30:24 +05:38 33.5
60 124 Sami MAYOU M 60 M3 8 MASSALIA 2:30:24 +05:38 33.5
61 366 Damien ZALA M 61 M1 39 CC ALLEINS TEAM ALCT 2:30:40 +05:54 33.4
62 588 Franck RASILLA Y CAMPO M 62 M2 8 VELO CLUB PENNOIS 2:30:40 +05:54 33.4
63 497 Louis MERMOZ M 63 M1 40 VÉLO SPORT HYÉROIS 2:30:40 +05:54 33.4
64 583 Mickael FORINO M 64 M1 41 TEAM BOUTICYCLE ALÈS 2:30:40 +05:54 33.4
65 362 Chris VIDAL M 65 M2 9 ROUE D'OR SISTERON 2:31:11 +06:25 33.3
66 5 Jacques NENZI M 66 M5 3 VTT DU GARLABAN 2:31:12 +06:26 33.3
67 40 Eric BIANAY M 67 M4 5 USTM-RTM CYCLISME 2:31:14 +06:28 33.3
68 226 Patrice RUIZ M 68 M2 10 SALON CYCLOSPORT 2:31:15 +06:29 33.3
69 6 Christian GALLO M 69 M6 2 VTT DU GARLABAN 2:31:15 +06:29 33.3
70 623 Pierre MIALHE M 70 M1 42 CVCM 2:31:15 +06:29 33.3
71 560 Mickaël HÉBERT M 71 M3 9 VELO CLUB FARLEDOIS 2:31:16 +06:30 33.3
72 298 Marc CHIARONI M 72 M5 4 2:31:16 +06:30 33.3
73 521 Pierre DELIGNY M 73 M5 5 CS LA BOUILLADISSE 2:31:17 +06:31 33.3
74 199 Maxime ACHARD M 74 M1 43 2:31:18 +06:32 33.3
75 24 Victor BORELLA M 75 M1 44 AIX VTT 2:31:18 +06:32 33.3
76 626 Jean-Baptiste PIERI M 76 M3 10 TEAM VTT SAINTE VICTOIRE 2:31:18 +06:32 33.3
77 305 Franck HERNANDEZ M 77 M4 6 VC SALINDRES 2:31:18 +06:32 33.3
78 1144 Thomas REBOUL M 78 M1 45 SJVC MONTÉLIMAR 2:31:19 +06:33 33.3
79 618 Antoine FALZON M 79 M1 46 EB MANOSQUE 2:31:19 +06:33 33.3
80 487 Olivier JEANDOT M 80 M3 11 2:31:20 +06:34 33.3
81 8 Philippe BEAUMOND M 81 M7 1 VTT DU GARLABAN 2:31:20 +06:34 33.3
82 13 Cristol MAILHE M 82 M1 47 RO SANARY 2:31:20 +06:34 33.3
83 632 Pierrick MILHET M 83 M2 11 V C DES ALPILLES 2:31:20 +06:34 33.3
84 492 Nicolas COLLEY M 84 M4 7 AC MONTDIDIER 2:31:21 +06:35 33.3
85 460 Benjamin PIOGER M 85 M1 48 LES VÊTEMENTS GAUTIER 2:31:23 +06:37 33.2
86 570 Sebastien BERTHELOT M 86 M3 12 VELO + 2:31:23 +06:37 33.2
87 323 Olivier VITTE M 87 M3 13 VTT DU GARLABAN 2:31:26 +06:40 33.2
88 129 Julien FLORENT M 88 M2 12 2:31:27 +06:41 33.2
89 365 Fabien LIOTARD M 89 M2 13 CC ALLEINS TEAM ALCT 2:31:27 +06:41 33.2
90 295 Yan COLL M 90 M4 8 2:31:29 +06:43 33.2
91 599 Eric GOUDARD M 91 M4 9 2:31:29 +06:43 33.2
92 107 Jerome CLAVERO M 92 M3 14 ECSL 2:31:31 +06:45 33.2
93 376 Jean Marc LEFEVER M 93 M5 6 SALON TRIATHLON 2:31:33 +06:47 33.2
94 633 Jérémy LETUE M 94 M1 49 TEAM FRANCE DEFENSE 2:31:34 +06:48 33.2
95 328 Thierry DADDI M 95 M4 10 VTT DU GARLABAN 2:33:09 +08:23 32.9
96 9 Raymond FATTORE M 96 M7 2 VTT DU GARLABAN 2:33:09 +08:23 32.9
97 155 Olivier AMBELAS M 97 M2 14 ISTRES SPORT CYCLISME 2:34:14 +09:28 32.6
98 546 Ocean MEDDE M 98 M1 50 AIX VTT 2:34:15 +09:29 32.6
99 28 Esteban BAGNON M 99 M1 51 AIX VTT 2:34:15 +09:29 32.6
100 14 Julien BARS M 100 M2 15 RO SANARY 2:34:42 +09:56 32.5
101 613 Sylvain DEFRANCE M 101 M1 52 2:36:44 +11:58 32.1
102 598 Jean-Baptiste BOUTTÉ M 102 M1 53 BMC VÉLOROC CAVAILLON 2:36:44 +11:58 32.1
103 1334 Angel PUERTA M 103 M5 7 VÉLO SPORT CASTRAIS 2:36:45 +11:59 32.1
104 342 Lionel KAMBOURIAN M 104 M5 8 2:36:46 +12:00 32.1
105 1462 Guillaume GAMB M 105 M1 54 CDL PERTUIS 2:36:47 +12:01 32.1
106 17 Jean-Sebastien CAROSSI M 106 M6 3 VELO CLUB APT 2:36:47 +12:01 32.1
107 654 Richard MARROU M 107 M8 1 VC APT 2:36:48 +12:02 32.1
108 619 Florent DOU M 108 M1 55 EBM 2:36:49 +12:03 32.1
109 406 Florent CUVELIER M 109 M3 15 CSB LA BOUILLADISSE 2:36:49 +12:03 32.1
110 648 Eric LE HIR M 110 M2 16 VTT DU GARLABAN 2:36:52 +12:06 32.1
111 442 Jean Marc AUBERT M 111 M5 9 2:36:52 +12:06 32.1
112 116 Xavier FANELLY M 112 M2 17 VTT DU GARLABAN 2:36:53 +12:07 32.1
113 16 Didier PECHDO M 113 M8 2 2:36:53 +12:07 32.1
114 212 Jean MINASSIAN M 114 M1 56 AVC AIX 2:36:54 +12:08 32.1
115 564 Laurent DERRIEU M 115 M4 11 2:36:57 +12:11 32.1
116 471 Marino CARGNELUTTI M 116 M4 12 2:36:59 +12:13 32.1
117 2 Marc BOUSQUET M 117 M7 3 TEAM MONTAGNAC AC 2:37:00 +12:14 32.1
118 689 Michael GEMARIN M 118 M4 13 VCP SAINT FLOUR 2:37:01 +12:15 32.1
119 480 Christophe DURBEC M 119 M4 14 MJC PLAN DE CUQUES 2:37:02 +12:16 32
120 559 Pascal PAYET M 120 M4 15 FSPN 2:37:02 +12:16 32
121 388 Alain AYMARD M 121 M6 4 RO SANARY 2:37:02 +12:16 32
122 168 Loris BULLES M 122 M1 57 2:37:04 +12:18 32
123 659 Laurent SOUCILLE M 123 M2 18 AS FRAMATOME 2:37:06 +12:20 32
124 465 Yohann SEULIN M 124 M1 58 YOHANN SEULIN 2:37:28 +12:42 32
125 31 Mathieu FABIANI M 125 M1 59 AIX VTT 2:38:41 +13:55 31.7
126 589 Frederic LEFEBVRE M 126 M4 16 UZES VÉLO CLUB 2:38:41 +13:55 31.7
127 670 Mickael CROQUELOIS M 127 M3 16 CROQUELOIS 2:38:43 +13:57 31.7
128 539 Fabien SIMPE M 128 M1 60 AC BEAUMES DE VENISE 2:38:43 +13:57 31.7
129 350 Michael ARTERO M 129 M3 17 CC AUPSOIS 2:38:43 +13:57 31.7
130 240 Samuel IHLI M 130 M1 61 2:38:44 +13:58 31.7
131 531 Gilles MARTINA M 131 M2 19 2:38:45 +13:59 31.7
132 242 Sebastien MILESI M 132 M4 17 TRIATHL'AIX 2:38:45 +13:59 31.7
133 353 Théo BAGNOL M 133 M1 62 2:38:50 +14:04 31.7
134 1073 Karine DEVIN F 1 A4 1 AIX VTT 2:38:55 +14:09 31.7
135 523 Nicolas GASPARINI M 134 M4 18 CTEVA 2:39:13 +14:27 31.6
136 11 Andrea JOUVE M 135 M1 63 RO SANARY 2:39:24 +14:38 31.6
137 243 Emmanuel MAS M 136 M2 20 FSPN ESPM 2:39:39 +14:53 31.5
138 324 Jonathan DE ABREU M 137 M2 21 VTT DU GARLABAN 2:39:52 +15:06 31.5
139 628 Eric BAGNON M 138 M4 19 ISTRES SPORT VTT 2:40:28 +15:42 31.4
140 188 B-Olivier SAVALLI M 139 M4 20 ECSL PERTUIS 2:40:46 +16:00 31.3
141 1111 Thibaut CALMELET M 140 M2 22 2:40:46 +16:00 31.3
142 691 Isaure MEDDE F 2 A1 1 SCOTT CREUSE OXYGENE GUERET 2:40:49 +16:03 31.3
143 603 Pascal HAMARD M 141 M4 21 2:40:50 +16:04 31.3
144 416 Vincent ODINOT M 142 M1 64 VINCENT ODINOT 2:41:22 +16:36 31.2
145 609 Jonathan ADAMI M 143 M2 23 2:41:23 +16:37 31.2
146 310 Frederic THIRION M 144 M5 10 SALON CYCLOSPORT 2:41:23 +16:37 31.2
147 601 Romain BRIONI M 145 M2 24 NIMES CYCLISME 2:41:24 +16:38 31.2
148 119 Patrice MARTINI M 146 M4 22 2:41:24 +16:38 31.2
149 554 Robert PASQUIER M 147 M7 4 LE BEAU VÉLO 2:41:25 +16:39 31.2
150 436 Jean-Marie DRUESNE M 148 M7 5 TEAM COMPÉTITION DURANCE VERDON 2:41:25 +16:39 31.2
151 103 Jean Claude MERCIER M 149 M8 3 2:41:28 +16:42 31.2
152 642 Laurent DURVILLE M 150 M3 18 PÉDALONS POUR LE DON 2:41:31 +16:45 31.2
153 572 Fabrice VETTORETTI M 151 M4 23 VETTORETTI 2:41:32 +16:46 31.2
154 424 Jean Claude BRIGNOLA M 152 M5 11 SARA BONNEVIE 2:41:34 +16:48 31.1
155 494 Jerome DUPRET M 153 M5 12 VTT LUBERON 2:41:36 +16:50 31.1
156 453 Vincent KERNACKER M 154 M1 65 CSC LA CIOTAT 2:41:37 +16:51 31.1
157 25 Alain WALET M 155 M6 5 2:41:40 +16:54 31.1
158 229 Hicham LAANAYA M 156 M3 19 VITROLLES VÉLO CLUB 2:41:40 +16:54 31.1
159 1121 Joel ROUX SIBILON M 157 M6 6 MVICC 2:41:43 +16:57 31.1
160 675 Christophe DUVAL M 158 M4 24 2:41:43 +16:57 31.1
161 278 Gilles GAZEAU M 159 M4 25 VO2 TRIATHLON 2:41:44 +16:58 31.1
162 309 Laurent STREF M 160 M4 26 CYCLOLAVOULTE07 2:41:44 +16:58 31.1
163 422 Vincent VAISSEAU M 161 M6 7 TEAM COMPETITION DURANCE 2:41:45 +16:59 31.1
164 303 Guillaume CASSOU M 162 M5 13 2:41:53 +17:07 31.1
165 529 Manon MANTEI F 3 A1 2 VÉLO CLUB ORNANS 2:41:54 +17:08 31.1
166 230 Brandon LAUSEIG M 163 M1 66 CCMEB 2:41:54 +17:08 31.1
167 177 Jean Michel MARTINEZ M 164 M3 20 2:42:40 +17:54 30.9
168 33 Christophe NOGERA M 165 M1 67 AIX VTT 2:42:41 +17:55 30.9
169 338 Olivier BASCK M 166 M2 25 2:42:46 +18:00 30.9
170 132 Vincent BELLUCCI M 167 M1 68 ECSL PERTUIS 2:43:24 +18:38 30.8
171 204 Thierry BEAUDOUIN M 168 M4 27 2:43:25 +18:39 30.8
172 126 Jerome MATEO M 169 M2 26 VCLL 2:43:27 +18:41 30.8
173 330 Boris KALFON M 170 M1 69 VTT DU GARLABAN 2:43:29 +18:43 30.8
174 227 Ildefonso RUIZ M 171 M8 4 SALON CYCLOSPORT 2:44:19 +19:33 30.6
175 161 Roland GROBLICA M 172 M3 21 2:44:20 +19:34 30.6
176 1140 Julien SPIRA M 173 M4 28 CSB LA BOUILLADISSE 2:44:20 +19:34 30.6
177 113 Frederic ROZIER M 174 M5 14 2:44:24 +19:38 30.6
178 3 Christophe MALNIS M 175 M5 15 2:44:25 +19:39 30.6
179 636 David STEFANI M 176 M4 29 GUIDON D'OR TARASCONNAIS 2:44:52 +20:06 30.5
180 279 Jean Yves ALMAIDA M 177 M7 6 CYCLO SPORT CAVAILLON 2:44:52 +20:06 30.5
181 38 Sébastien VERAN M 178 M3 22 VC DES ALPILLES 2:44:53 +20:07 30.5
182 109 Bruno BEVILACQUA M 179 M6 8 VS HYEROIS 2:44:53 +20:07 30.5
183 640 Nathalie SARTORI F 4 A3 1 PROVENCE2ROUES ST RÉMY 2:44:53 +20:07 30.5
184 575 Patrice DUPRET M 180 M4 30 PATRICE DUPRET 2:44:55 +20:09 30.5
185 15 Philippe FORMISARO M 181 M6 9 2:44:57 +20:11 30.5
186 508 Michel ROUSSELET M 182 M4 31 MICHMAXMICH 2:44:57 +20:11 30.5
187 1013 Nathalie BLONDIN F 5 A3 2 MVICC 2:44:58 +20:12 30.5
188 1150 Jerome POUMIER M 183 M4 32 MVICC 2:44:58 +20:12 30.5
189 427 Adelino Humberto LEAL DE M 184 M2 27 AMICALE CYCLISTE DE L'ESTAQUE 2:44:59 +20:13 30.5
190 115 Philippe GIRARD M 185 M6 10 UNION SPORTIVE PALUNAISE 2:45:00 +20:14 30.5
191 421 Maurice GOUYACHE M 186 M3 23 CSB LA BOUILLADISSE 2:45:00 +20:14 30.5
192 616 Olivier DEVISSI M 187 M5 16 2:45:00 +20:14 30.5
193 660 Sébastien BURGART M 188 M3 24 LES TAUREAUX AILÉS DE CHARLEVAL 2:45:03 +20:17 30.5
194 413 Patrick VERDIER M 189 M4 33 AUBAGNE TRIATHLON 2:45:04 +20:18 30.5
195 37 Eric PALOT M 190 M4 34 GUIDON D'OR TARASCONNAIS 2:45:07 +20:21 30.5
196 553 Eric ROCHIAS M 191 M6 11 2:45:09 +20:23 30.5
197 605 Jean-Noël HONORAT M 192 M6 12 VC DES ALPILLES 2:45:09 +20:23 30.5
198 207 Philippe MOUTTE M 193 M6 13 CC ALLEINS 2:45:09 +20:23 30.5
199 285 Pascal MARCOS M 194 M6 14 PASCAL MARCOS 2:45:10 +20:24 30.5
200 498 Jonathan PERLA M 195 M2 28 2:45:13 +20:27 30.5
201 425 Christophe DOLLADILLE M 196 M4 35 VELO SPRINT GRAND ALES 2:45:20 +20:34 30.4
202 446 Jérôme QUETTIER M 197 M1 70 2:45:25 +20:39 30.4
203 218 Olivier GIRAUD M 198 M6 15 AUCUN 2:45:27 +20:41 30.4
204 286 Simon MACAIGNE M 199 M3 25 2:45:27 +20:41 30.4
205 430 François LAUMONNIER M 200 M5 17 FRANÇOIS LAUMONNIER 2:45:31 +20:45 30.4
206 321 Thierry ARMAND M 201 M4 36 THIERRY ARMAND 2:45:32 +20:46 30.4
207 397 Nicolas COQUILLAS M 202 M2 29 2:45:40 +20:54 30.4
208 582 Anais LAROUBINE F 6 A2 1 GARDANNE VELO 2:45:58 +21:12 30.3
209 690 Steve LECOURT M 203 M1 71 GARDANNE VELO 2:45:58 +21:12 30.3
210 349 Claude MENENI M 204 M6 16 CC AUPSOIS 2:46:04 +21:18 30.3
211 215 Quentin JACOB M 205 M1 72 2:46:37 +21:51 30.2
212 551 Philippe PATIJAUD M 206 M8 5 2:46:43 +21:57 30.2
213 608 Denis GAMB M 207 M6 17 CDL PERTUIS 2:46:46 +22:00 30.2
214 339 Pascal RIGAUD M 208 M5 18 2:46:46 +22:00 30.2
215 518 Jerome GIORDANO M 209 M3 26 ACME 2:47:53 +23:07 30
216 652 Sylvain GIUSTI M 210 M2 30 CLES GARDANNE TRIATHLON 2:48:40 +23:54 29.8
217 401 Laurent KRALJIC M 211 M5 19 2:48:50 +24:04 29.8
218 467 Rémi LEONARD M 212 M8 6 AOBAGARD 2:49:14 +24:28 29.7
219 102 Guillaume PELLEGRINO M 213 M1 73 SALON CYCLOSPORT 2:49:46 +25:00 29.6
220 592 Frederic MESSIANT M 214 M6 18 2:49:55 +25:09 29.6
221 130 Benjamin LAOT M 215 M1 74 2:50:19 +25:33 29.5
222 627 Vincent PRATI M 216 M1 75 EVACION BICLOU MANOSQUIN 2:50:22 +25:36 29.5
223 131 Bruno BELLUCCI M 217 M5 20 ECSL PERTUIS 2:50:22 +25:36 29.5
224 419 Joseph SCHMITT M 218 M7 7 VC APT 2:50:39 +25:53 29.5
225 246 Michael GAUTRON M 219 M3 27 MVICC GF MONT VENTOUX 2:51:10 +26:24 29.4
226 1105 Bruno MARRONI M 220 M1 76 2:51:11 +26:25 29.4
227 29 Tonatiuh BAGNON M 221 M1 77 AIX VTT 2:51:29 +26:43 29.3
228 643 Yvain MAUNIER M 222 M1 78 2:51:35 +26:49 29.3
229 225 Jean-François GARZINO M 223 M7 8 SALON CYCLOSPORT 2:51:44 +26:58 29.3
230 475 Julien VERMOREL M 224 M4 37 2:51:44 +26:58 29.3
231 472 Patrick POURTEYRON M 225 M3 28 MASSILIA TRIATHLON 2:51:46 +27:00 29.3
232 329 Jean Pierre RAHAL M 226 M3 29 VTT DU GARLABAN 2:51:54 +27:08 29.3
233 325 Romain LUSINCHI M 227 M2 31 VTT DU GARLABAN 2:51:54 +27:08 29.3
234 532 Vincent THOMASSET M 228 M1 79 2:52:00 +27:14 29.3
235 615 Fabien HILAIRE M 229 M3 30 2:52:27 +27:41 29.2
236 614 Gardanne VELO M 230 M1 80 GARDANNE VELO 2:52:32 +27:46 29.2
237 445 Maxime BUCH M 231 M2 32 2:52:32 +27:46 29.2
238 1030 Fabien VERAX M 232 M2 33 SNCF ILE DE FRANCE 2:52:33 +27:47 29.2
239 332 Nicolas JOUBERT M 233 M2 34 NICOLAS JOUBERT 2:52:34 +27:48 29.2
240 526 Nathalie BILLOT F 7 A3 3 AUBAGNE TRIATHLON 2:52:37 +27:51 29.1
241 340 Benoit DUPONT M 234 M4 38 PACA 2:52:40 +27:54 29.1
242 104 Denis LAUREY M 235 M3 31 VITROLLES VELO CLUB BMX 2:52:44 +27:58 29.1
243 291 Emmanuel PATRON M 236 M5 21 NIMES CYCLISME 2:53:14 +28:28 29
244 355 Bruno DUBOIS M 237 M7 9 2:53:14 +28:28 29
245 558 Alain PAULI M 238 M8 7 OCCI 2:53:50 +29:04 28.9
246 458 Tony COUANON M 239 M2 35 2:53:55 +29:09 28.9
247 606 Sonia LAFEUILLE F 8 A2 2 ISTRES SPORT CYCLISME 2:53:57 +29:11 28.9
248 352 Jehan-Maxime KNIPPING M 240 M1 81 2:54:02 +29:16 28.9
249 315 Anne Lise NOWODWORSKY F (9.) F 9 A2 3 AIX ATHLÉ PROVENCE 2:54:02 +29:16 28.9
250 502 Sylvie MONNIAUX F 10 A4 2 VÉLO CLUB AUBAGNAIS 2:54:03 +29:17 28.9
251 173 Gilles REBUFFAT M 241 M4 39 CS LA BOUILLADISSE 2:54:12 +29:26 28.9
252 202 Sébastien ZAMPROGNO M 242 M4 40 2:54:53 +30:07 28.8
253 382 Richard GUERIN M 243 M6 19 2:55:20 +30:34 28.7
254 186 Patrick MALLET M 244 M9 1 2:55:22 +30:36 28.7
255 254 Yvan EYMIN M 245 M4 41 2:55:24 +30:38 28.7
256 386 Jose BRANDAO M 246 M5 22 2:55:25 +30:39 28.7
257 371 Emmanuel CABARROU M 247 M1 82 2:55:28 +30:42 28.7
258 241 Mathieu CARMOUZE M 248 M2 36 2:55:28 +30:42 28.7
259 384 Romain MEDUS M 249 M1 83 TRIATHLON STADE BAGNÉRAIS 2:55:29 +30:43 28.7
260 347 Richard GARCIA M 250 M4 42 CC AUPSOIS 2:55:31 +30:45 28.7
261 444 Thomas ALORENT M 251 M1 84 2:55:31 +30:45 28.7
262 166 Olivier ROUSTAN M 252 M3 32 2:55:31 +30:45 28.7
263 316 Gregory ETIENNE M 253 M2 37 2:55:32 +30:46 28.7
264 213 Jean-Luc DICKELE M 254 M6 20 GUIDON D'OR TARASCONNAIS 2:55:34 +30:48 28.7
265 22 Florian FRISON M 255 M1 85 CHAMBERY CYCLISME COMPETITION / 2:55:36 +30:50 28.7
266 158 Thierry MOUGEOT M 256 M5 23 2:55:37 +30:51 28.6
267 1161 Jean-Marie SABATHÉ M 257 M8 8 ASSO ETOILE CYCLISTE SUD LUBERON 2:55:37 +30:51 28.6
268 1248 Joël LAUSENT M 258 M6 21 CDL PERTUIS 2:55:38 +30:52 28.6
269 239 Olivier MUNOZ M 259 M5 24 2:55:38 +30:52 28.6
270 488 René LAURE M 260 M8 9 CYCLISME OUEST VAR ( COV) 2:55:39 +30:53 28.6
271 635 Mireille DENIZOT F 11 A3 4 VTT DU GARLABAN 2:55:40 +30:54 28.6
272 644 Lionel CAILTEUX M 261 M8 10 TEAM CYCLISTE DURANCE VERDON 2:55:41 +30:55 28.6
273 685 Alexandre CRISTOFANO M 262 M1 86 LA PEDALERIE 2:55:42 +30:56 28.6
274 455 Eliot HENKEL M 263 M1 87 LA BOUILLADISSE 2:56:18 +31:32 28.5
275 433 Pierre ROUSSELLIER M 264 M1 88 CSC LA CIOTAT 2:56:33 +31:47 28.5
276 42 Anne BOURON F 12 A4 3 MJC PLAN DE CUQUES 2:56:49 +32:03 28.5
277 203 Eric MATTAROZZI M 265 M6 22 2:56:52 +32:06 28.4
278 515 Clément NICOLAS M 266 M1 89 2:56:57 +32:11 28.4
279 493 Rémi BOU M 267 M4 43 CANOHÈS AVENIR CYCLISTE 66 2:57:36 +32:50 28.3
280 459 Marc SANTUCCI M 268 M6 23 CSPCG 13 2:57:44 +32:58 28.3
281 479 Wendy HARMAND F 13 A1 3 2:57:48 +33:02 28.3
282 478 Clément ROUSSELLE M 269 M1 90 2:57:49 +33:03 28.3
283 223 Philippe MIGLIACCIO M 270 M1 91 2:57:49 +33:03 28.3
284 451 Julien DEUDÉ M 271 M1 92 2:57:49 +33:03 28.3
285 657 Christophe PETHOUD M 272 M5 25 EPREX TEAM 2:57:54 +33:08 28.3
286 566 Sébastien LHOTTE M 273 M5 26 ALPILLES LUBERON CYCLING TEAM 2:58:00 +33:14 28.3
287 593 Gilbert DONZELLI M 274 M7 10 CYCLO SPORT CIOTADEN 2:58:43 +33:57 28.2
288 533 Jose FIGUEIRA M 275 M7 11 2:59:28 +34:42 28
289 505 Gil BOIOLI M 276 M5 27 3:00:27 +35:41 27.9
290 267 Jean WEBER M 277 M5 28 3:00:29 +35:43 27.9
291 269 Pierre PANNETIER M 278 M5 29 3:00:29 +35:43 27.9
292 370 Frederic CARTIER M 279 M5 30 CLUB VILLENEUVE 3:00:31 +35:45 27.9
293 655 Antoine COIGNARD M 280 M2 38 3:00:43 +35:57 27.8
294 400 Nicolas DEPOUSIER M 281 M2 39 3:00:56 +36:10 27.8
295 658 Jacques TAURINES M 282 M7 12 VCLL PEZENAS 3:01:26 +36:40 27.7
296 164 Matthieu CUBAYNES M 283 M1 93 AUBORD CYCLO CLUB 3:02:12 +37:26 27.6
297 174 Bertrand SERWAS M 284 M3 33 3:02:18 +37:32 27.6
298 415 Richard DUFAY M 285 M6 24 SALON CYCLOSPORT 3:02:20 +37:34 27.6
299 501 Patrick ARGENTA M 286 M8 11 A C VALBONNE 3:02:20 +37:34 27.6
300 290 Eric VAN DER VOSSEN M 287 M5 31 3:02:21 +37:35 27.6
301 470 Christian DUPUY M 288 M8 12 VELOROC GREASQUE 3:02:25 +37:39 27.6
302 452 Stéphane PINAULT M 289 M4 44 STÉPHANE PINAULT 3:02:25 +37:39 27.6
303 256 Guillaume COUTURIER M 290 M3 34 3:03:36 +38:50 27.4
304 34 Guy FRITZ M 291 M9 2 3:03:43 +38:57 27.4
305 387 Fabrice RIOU M 292 M5 32 RO SANARY 3:03:52 +39:06 27.4
306 440 Dominique LABARRE M 293 M5 33 SALON CYCLOSPORT 3:04:13 +39:27 27.3
307 146 Roger ROSSI M 294 M8 13 CS LA BOUILLADISSE 3:04:15 +39:29 27.3
308 345 Didier BERTRAND M 295 H 1 VTT DU GARLABAN 3:04:15 +39:29 27.3
309 274 Sébastien BELIN M 296 M4 45 LES CENTAURES PERTUIS 3:04:17 +39:31 27.3
310 327 Jacques BRIANT M 297 M9 3 VTT DU GARLABAN 3:04:35 +39:49 27.3
311 117 Anthony MINIO M 298 H 2 3:04:37 +39:51 27.3
312 194 Christophe ALBERTON M 299 M4 46 3:04:37 +39:51 27.3
313 111 Patrick MATTELIN M 300 M7 13 A.C.C. AUBIGNAN 3:04:44 +39:58 27.2
314 590 Abdel LEBOUACHERA M 301 M6 25 3:05:03 +40:17 27.2
315 1284 Claude PENVERN M 302 M7 14 CC ALLEINS TEAM ALCT 3:05:05 +40:19 27.2
316 248 Michel BARLERIN M 303 M7 15 3:05:09 +40:23 27.2
317 1269 Daniel LENOIR M 304 M8 14 ES CANNES 3:05:11 +40:25 27.2
318 287 Eric JAGER M 305 M6 26 TEAM EUROP ENERGIE 3:05:22 +40:36 27.1
319 687 Florian QUILES M 306 M1 94 3:05:22 +40:36 27.1
320 477 Alain SASSANO M 307 M5 34 3:05:58 +41:12 27.1
321 372 Lucas SERVAIS M 308 M2 40 MVICC 3:06:01 +41:15 27
322 333 Carmello FEDELE M 309 M5 35 LES ALLUMÉS DE LA STE VICTOIRE 3:06:02 +41:16 27
323 571 Nicolas ROUSTAN M 310 M5 36 3:06:03 +41:17 27
324 118 Jean-Francois GIULIANI M 311 M4 47 CYCLO SPORT CIOTADEN 3:06:03 +41:17 27
325 394 Vincent ETIEVENT M 312 M9 4 SANARY CYCLO SPORT 3:06:04 +41:18 27
326 318 Uwe MUSZARSKY M 313 M5 37 3:06:04 +41:18 27
327 474 Regis BAUDRY M 314 M6 27 3:06:07 +41:21 27
328 423 Sara BONNEVIE F 14 A4 4 3:06:08 +41:22 27
329 351 Daniel REMETTRE M 315 M8 15 3:06:11 +41:25 27
330 341 Jean-Pierre LEVASSEUR M 316 M7 16 3:06:19 +41:33 27
331 600 Christian WACQUEZ M 317 M5 38 GUIDON D’OR TARASCONNAIS 3:07:11 +42:25 26.9
332 686 Philippe HUMANN M 318 M8 16 OCR 3:07:12 +42:26 26.9
333 101 Patrick GARRIDO M 319 M4 48 3:07:13 +42:27 26.9
334 360 Sébastien REY M 320 M3 35 3:07:15 +42:29 26.9
335 417 Laurent BACHELIER M 321 M1 95 MASSILIA TRIATHLON 3:07:58 +43:12 26.8
336 284 Chloé GARVI F 15 A1 4 MASSILIA TRIATHLON 3:08:00 +43:14 26.8
337 312 Denis LOCQUET M 322 M6 28 3:08:02 +43:16 26.8
338 503 Claude MICHELLYS M 323 M7 17 CDL PERTUIS 3:08:25 +43:39 26.7
339 576 Franck MORONI M 324 M5 39 FRANCK MORONI 3:08:27 +43:41 26.7
340 348 Jean-Philippe ORTIZ M 325 M4 49 CC AUPSOIS 3:08:32 +43:46 26.7
341 343 Christèle RENAULT F 16 A3 5 CHRISTÈLE RENAULT 3:08:43 +43:57 26.7
342 277 Guido TROONEN M 326 M9 5 GUIDO TROONEN 3:08:43 +43:57 26.7
343 507 Jacques MAT M 327 M9 6 CYCLOTOURISTES BISSERAINS 3:08:43 +43:57 26.7
344 331 Eric GARDÈS M 328 M2 41 BOUC BEL AIR TRIATHLON 3:08:44 +43:58 26.7
345 139 Fawzi HADDOU M 329 M6 29 3:08:46 +44:00 26.7
346 209 Jean Marc SCHMITZ M 330 M5 40 3:08:51 +44:05 26.6
347 402 Patrick FRANCOIS M 331 M7 18 VELO CLUB LARDINOIS 3:09:05 +44:19 26.6
348 251 Virginie VERDREAU F 17 A3 6 FCVD 3:09:45 +44:59 26.5
349 1155 Nadia GRAVIER F 18 A3 7 VITROLLES TRIATHLON 3:09:48 +45:02 26.5
350 176 Serge TAVITIAN M 332 M5 41 3:10:09 +45:23 26.5
351 390 Dominique MEURET M 333 M5 42 ISTRES SPORT CYCLISME 3:10:19 +45:33 26.4
352 610 Antoine ANGELONI M 334 M5 43 VÉLO CLUB PORT DE BOUC 3:10:38 +45:52 26.4
353 682 Bernard CHIVOT M 335 M8 17 3:10:39 +45:53 26.4
354 1356 Thierry FOURNIER M 336 M7 19 3:10:39 +45:53 26.4
355 135 Bernard MUSSET M 337 M8 18 OCPACA CLUB NEUTRE 3:10:40 +45:54 26.4
356 123 Regis RAFÉ M 338 M5 44 3:11:07 +46:21 26.3
357 611 Bruno BEAUME M 339 M4 50 LE SUC CAVAILLON 3:11:11 +46:25 26.3
358 192 David DANIS M 340 M4 51 3:11:22 +46:36 26.3
359 414 Elisabeth LUCIA F 19 A4 5 ELISABETH LUCIA 3:11:24 +46:38 26.3
360 665 Caroline PITAVAL F 20 A3 8 AUBAGNE TRIATHLON 3:12:08 +47:22 26.2
361 306 Innocent DA SYLVA M 341 M5 45 3:12:32 +47:46 26.1
362 293 Stéphane AUDELAN M 342 M5 46 CYCLOTOURISTES POITEVINS 3:12:34 +47:48 26.1
363 469 Bertrand FLEHO M 343 M4 52 EMBUSCADE CYCLING TEAM 3:12:34 +47:48 26.1
364 668 Nicolas DAUBER M 344 M6 30 SECURITÉ CIVILE 3:12:35 +47:49 26.1
365 537 Matthieu TREMEAU M 345 M1 96 3:12:35 +47:49 26.1
366 26 Audrey DELCAMP F 21 A2 4 3:12:39 +47:53 26.1
367 517 Henry DUFOUR M 346 M6 31 TYLOS 3:13:30 +48:44 26
368 669 Guillaume VEGA M 347 M2 42 GUILLAUME VEGA 3:13:31 +48:45 26
369 255 Aurélie COUTURIER F 22 A2 5 3:13:31 +48:45 26
370 464 Jean-Paul ESTEVE M 348 M8 19 CSPA 3:13:32 +48:46 26
371 396 Benoit PLEYNET M 349 M4 53 06 42 86 24 96 3:13:40 +48:54 26
372 577 Kevin GHEUX M 350 M1 97 3:13:59 +49:13 25.9
373 1214 Camille MONAT M 351 M1 98 PUISSANCE 3 COURNON 3:14:01 +49:15 25.9
374 664 Nicolas TERZIAN M 352 M2 43 NICOLAS TERZIAN 3:14:15 +49:29 25.9
375 562 Nicolas ORSINI M 353 M4 54 NICOLAS ORSINI 3:14:15 +49:29 25.9
376 645 Pierre GRANZOTTO M 354 M1 99 3:14:19 +49:33 25.9
377 224 Pierre RICARD M 355 M6 32 3:14:20 +49:34 25.9
378 114 Bernard BETTON M 356 M6 33 BCG 3:14:25 +49:39 25.9
379 595 Gilles CHARPENTIER M 357 M6 34 3:14:27 +49:41 25.9
380 296 Nicolas BAUDUIN M 358 M5 47 3:14:37 +49:51 25.8
381 189 Alain MOMAL M 359 M8 20 VÉLOCYRAPTORS 3:14:52 +50:06 25.8
382 418 Jacques TER-AKOPOFF M 360 M8 21 LE BEAU VELO MARSEILLE 3:14:52 +50:06 25.8
383 411 Michel QUADPEERDS M 361 M9 7 AC-CATENOY 3:14:53 +50:07 25.8
384 671 Clement BOUILLOT M 362 M1 100 AUBAGNE TRIATHLON 3:14:54 +50:08 25.8
385 574 Alexis SAINT-MICHEL M 363 M3 36 V.B.C 3:15:00 +50:14 25.8
386 264 Vincent BENEZIT M 364 M3 37 VINCENT 3:15:04 +50:18 25.8
387 522 Axel MAHÉ M 365 M1 101 BMX STE VICTOIRE 3:15:09 +50:23 25.8
388 356 Thomas NICOLLE M 366 M3 38 LES CENTAURES 3:15:19 +50:33 25.8
389 607 Jean-François IMBERT M 367 M7 20 AVIGNON-LE PONTET TRIATHLON 3:15:20 +50:34 25.8
390 151 Frederic SUAU M 368 M4 55 AS CARNOUX CYCLO 3:15:23 +50:37 25.7
391 112 Yannick LEBRETON M 369 M4 56 BICYCLETTE CLUB GRAVESONNAIS 3:15:32 +50:46 25.7
392 629 Valérie BAGNON F 23 A3 9 ISTRES SPORT VTT 3:15:39 +50:53 25.7
393 680 Bruno RAVEL M 370 M7 21 VC ROUSSETAIN 3:15:40 +50:54 25.7
394 634 Patrick BERTO M 371 M7 22 SALON CYCLOSPORT 3:15:40 +50:54 25.7
395 354 Cyprien RAVAT M 372 M1 102 3:15:42 +50:56 25.7
396 260 Regis LESAEGE M 373 M5 48 REGIS LESAEGE 3:16:25 +51:39 25.6
397 261 Jean Michel LEROND M 374 M4 57 3:16:25 +51:39 25.6
398 317 Kévin CHESNE M 375 M1 103 SALON TRIATHLON 3:16:28 +51:42 25.6
399 268 Pascal VASSET M 376 M6 35 3:16:36 +51:50 25.6
400 549 Cyril VANHEMS M 377 M4 58 CYRIL VANHEMS 3:16:53 +52:07 25.5
401 541 Julien PIERI M 378 M2 44 MASSILIA TRIATHLON 3:16:58 +52:12 25.5
402 579 Luc BASSIGNANI M 379 M5 49 LUC BASSIGNANI 3:17:00 +52:14 25.5
403 308 Carole MELLADO F 24 A4 6 BIKE BEL AIR CLUB 3:17:10 +52:24 25.5
404 234 Sébastien MESURE M 380 M2 45 3:17:16 +52:30 25.5
405 569 Laurent VIEU M 381 M4 59 ETOILE SPORTIVE ST LAURENT DU CROS 3:17:18 +52:32 25.5
406 476 Corentin CAUDRELIER M 382 M1 104 3:17:26 +52:40 25.5
407 506 Leonardo DUQUE M 383 M2 46 ECSL 3:17:28 +52:42 25.5
408 167 Michel HUGUES M 384 M6 36 3:17:37 +52:51 25.5
409 319 Claude GOUIN M 385 M5 50 VÉLO PASSION MORIÉRES 3:17:39 +52:53 25.5
410 361 Jean-Philippe SCHUMM M 386 M2 47 BBOY 3:17:41 +52:55 25.4
411 200 Florent PIEGAD M 387 M1 105 VCN 3:17:45 +52:59 25.4
412 302 Laurent LEMERLE M 388 M3 39 3:18:30 +53:44 25.3
413 253 Laurent CALLEJA M 389 M2 48 3:18:33 +53:47 25.3
414 121 Jérôme BOISSEZ M 390 M2 49 VTT DU GARLABAN 3:18:33 +53:47 25.3
415 563 Matthieu DE VATHAIRE M 391 M1 106 3:18:36 +53:50 25.3
416 281 Bruno MORISSET M 392 M7 23 3:18:39 +53:53 25.3
417 620 Francois PAQUET M 393 M6 37 3:19:26 +54:40 25.2
418 1385 Sylvaine RÉVEILLON F 25 A2 6 3:19:27 +54:41 25.2
419 1384 Jacques BELLET M 394 M6 38 3:19:31 +54:45 25.2
420 250 Franck TOMASI M 395 M7 24 3:19:38 +54:52 25.2
421 594 Barbara CHARPENTIER F 26 A3 10 3:19:44 +54:58 25.2
422 661 Anne FLEURY F 27 A4 7 CYCLO CLUB CAGNOIS 3:19:44 +54:58 25.2
423 344 Gerard BLATGE M 396 M8 22 USCS SEPTEMES 3:19:45 +54:59 25.2
424 504 Roland GOUGNOT M 397 M9 8 ASPTT NEVERS 3:19:53 +55:07 25.2
425 195 Michael SUEUR M 398 M3 40 3:20:06 +55:20 25.1
426 294 Elie SANCHEZ M 399 M1 107 MIRAMAS CYCLOTOURISME 3:20:07 +55:21 25.1
427 456 Nicolas DELION M 400 M4 60 3:20:08 +55:22 25.1
428 481 Lyonel DUPONT M 401 M4 61 3:20:31 +55:45 25.1
429 165 Yvan CAZAS M 402 M6 39 AUBORD CYCLO CLUB 3:20:31 +55:45 25.1
430 587 Christophe GENTY M 403 M6 40 3:20:43 +55:57 25.1
431 1220 Matteo GILARDI M 404 M3 41 3:20:44 +55:58 25.1
432 548 Jean-Christophe M 405 M5 51 B.C.G 3:20:48 +56:02 25.1
433 527 Olivier Domicile CAUBÈRE M 406 M7 25 VC LA POMME 3:20:59 +56:13 25
434 639 Johana PAQUIEN F 28 A2 7 JOHANA PAQUIEN 3:21:06 +56:20 25
435 437 Jean Marie AGOSTI M 407 M9 9 CA PEYMEINADE 3:21:09 +56:23 25
436 542 Sébastien PIARULLI M 408 M2 50 3:21:56 +57:10 24.9
437 272 Thierry CHANEY M 409 M5 52 THIERRY CHANEY 3:22:10 +57:24 24.9
438 147 Luc FERRIER M 410 M6 41 UNION SPORTIVE PALUNAISE 3:22:12 +57:26 24.9
439 148 Georges SCUOTTO M 411 M6 42 ASSOCIATION SPORTIVE BANQUE DE 3:22:12 +57:26 24.9
440 495 Olivier VAUCHEL M 412 M6 43 CYCLISME OUEST VAR 3:22:22 +57:36 24.9
441 513 Robert GILLOUX M 413 M8 23 3:22:26 +57:40 24.8
442 196 Thierry BRONDINO M 414 M4 62 3:22:27 +57:41 24.8
443 359 Gilles CANTERINI M 415 M6 44 GILLES CANTERINI 3:23:27 +58:41 24.7
444 358 Adrien JOLIDON M 416 M1 108 3:23:27 +58:41 24.7
445 524 Bernard LOLLEY M 417 M6 45 LOLLEY 3:23:31 +58:45 24.7
446 581 Fabien BERGERETTI M 418 M3 42 GALLARDO 3:23:43 +58:57 24.7
447 586 Lionel GENTY M 419 M4 63 TCDV 3:23:43 +58:57 24.7
448 432 Yann GREGOIRE M 420 M5 53 VÉLO-CLUB ISLOIS 3:23:48 +59:02 24.7
449 443 José SALVADOR M 421 M5 54 VELO CLUB ISLOIS 3:23:49 +59:03 24.7
450 573 Pierre BACCI M 422 M7 26 3:24:01 +59:15 24.7
451 412 Florent MUHMEL M 423 M1 109 3:24:06 +59:20 24.6
452 245 Frederic HERY M 424 M3 43 3:24:32 +59:46 24.6
453 299 Georges MARTINEZ M 425 M7 27 3:24:35 +59:49 24.6
454 105 Vincent MOUNET M 426 M4 64 VINCENT HOMME MOUNET 3:25:02 +1:00:16 24.5
455 238 Helene COLIN F 29 A3 11 HELENE COLIN 3:25:04 +1:00:18 24.5
456 625 Christelle STEFANI F 30 A3 12 GUIDON D'OR TARASCONNAIS 3:25:08 +1:00:22 24.5
457 149 Joel MAHE M 427 M9 10 3:25:13 +1:00:27 24.5
458 357 Stephen JOY M 428 H 3 3:25:49 +1:01:03 24.4
459 346 Didier LESCURE M 429 M6 46 US METROPOLITAINE DES TRANSPORTS 3:26:16 +1:01:30 24.4
460 448 Julien BOANICHE M 430 M1 110 3:26:21 +1:01:35 24.4
461 647 Stephane BARNEAUD M 431 M4 65 3:26:52 +1:02:06 24.3
462 410 Thomas MORRELL M 432 M2 51 3:27:00 +1:02:14 24.3
463 491 Patrick LABROSSE M 433 M5 55 3:27:00 +1:02:14 24.3
464 441 Marielle JEUDY F 31 A4 8 ATSCAF DES SAVOIE 3:27:08 +1:02:22 24.3
465 468 Nathalie SIMON F 32 A4 9 LA POMME 3:27:18 +1:02:32 24.3
466 265 Fanny BORDERIES F 33 A2 8 TEAM ROUE LIBRE 3:27:19 +1:02:33 24.3
467 683 Alain MAGRE M 434 M5 56 CSPA 3:27:40 +1:02:54 24.2
468 133 Françoise HAUDRY F 34 A5 1 3:28:07 +1:03:21 24.2
469 235 Denis BAUBET M 435 M9 11 3:28:11 +1:03:25 24.2
470 399 Marine CARDINEAU F 35 A2 9 3:28:12 +1:03:26 24.2
471 405 Didier MENCACCI M 436 M5 57 CSB LA BOUILLADISSE 3:28:29 +1:03:43 24.1
472 536 Antoine MAHÉ M 437 M2 52 ROUSSET TRIATHLON 3:28:48 +1:04:02 24.1
473 383 Philippe FEZZANI M 438 M5 58 MASSILIA TRIATHLON 3:29:10 +1:04:24 24
474 612 Béatrice BRUMEAU F 36 A3 13 ANDREST SPORTS LOISIRS 3:29:16 +1:04:30 24
475 304 Jean-Christophe LHUSSIER M 439 M4 66 3:29:43 +1:04:57 24
476 677 Frederic GUINIERI M 440 M7 28 3:29:44 +1:04:58 24
477 486 Serge BUCHMANN M 441 M5 59 ISTRES SPORTS CYCLO 3:29:56 +1:05:10 24
478 159 Frederic SALLES M 442 M3 44 3:30:54 +1:06:08 23.8
479 210 Yi ZHUANG M 443 M2 53 PIGNON LIBRE VEDASIEN 3:31:23 +1:06:37 23.8
480 466 Sandrine MOREL F 37 A3 14 3:31:26 +1:06:40 23.8
481 369 Remy WALTER M 444 M1 111 VELO ATTITUDES 3:31:33 +1:06:47 23.8
482 1180 Yvan CARMINATI M 445 M1 112 ROUSSET TRIATHLON 3:31:37 +1:06:51 23.8
483 429 Gilles BURLE M 446 M6 47 RUNNINGSTONES 3:31:42 +1:06:56 23.8
484 439 Pierre MARROCCHELLI M 447 M6 48 3:32:39 +1:07:53 23.7
485 550 Cyril CHABALLIER M 448 M1 113 3:32:40 +1:07:54 23.6
486 676 Maryse DUFRANCATEL F 38 A5 2 OCRAPHAELOIS 3:33:49 +1:09:03 23.5
487 156 Sebastien HUARD M 449 M4 67 3:34:33 +1:09:47 23.4
488 157 Veronique HUARD F 39 A3 15 3:34:33 +1:09:47 23.4
489 175 Virginie LUCAS F 40 A2 10 3:34:33 +1:09:47 23.4
490 197 Gerome GINOUX M 450 M1 114 SALON CYCLOSPORT 3:34:38 +1:09:52 23.4
491 1147 Pierre ALLART M 451 M4 68 PIERRE ALLART 3:35:41 +1:10:55 23.3
492 1190 Yannick ROSSIGNOL M 452 H 4 CC ERNEEN 3:35:44 +1:10:58 23.3
493 127 Jean-Charles BESSON M 453 M8 24 3:37:17 +1:12:31 23.1
494 512 Colin SUMMERFIELD M 454 M9 12 3:37:20 +1:12:34 23.1
495 431 Jacques GIANOLA M 455 M9 13 CSPA 3:37:24 +1:12:38 23.1
496 520 Frédéric DAMOUR M 456 M5 60 SALON CYCLOSPORT 3:37:52 +1:13:06 23.1
497 122 Roderick SILVA M 457 M7 29 3:38:02 +1:13:16 23.1
498 178 Barry PRESCOTT M 458 M5 61 3:38:53 +1:14:07 23
499 307 Fabien SANCHEZ M 459 M1 115 MIRAMAS CYCLOTOURISME 3:39:33 +1:14:47 22.9
500 404 Louise ARASA F 41 A5 3 SPOC 3:39:41 +1:14:55 22.9
501 160 Michel CALZIA M 460 M5 62 3:39:46 +1:15:00 22.9
502 447 Duc NGUYEN M 461 M2 54 3:41:20 +1:16:34 22.7
503 233 Sebastien MEDVEDOWSKY M 462 M2 55 3:41:37 +1:16:51 22.7
504 381 Jean-Luc VIDALENCHE M 463 M8 25 3:42:30 +1:17:44 22.6
505 206 Rita GONÇALVES F 42 A4 10 LES ALLUMÉS DE LA STE VICTOIRE 3:42:44 +1:17:58 22.6
506 621 Philippe BOURNE M 464 M6 49 3:42:50 +1:18:04 22.6
507 336 Christian TOUNY M 465 M9 14 ECCF 3:42:58 +1:18:12 22.6
508 263 Stéphane DUCROCQ M 466 M4 69 3:43:19 +1:18:33 22.5
509 259 Alain BAILLOEUIL M 467 M5 63 3:43:20 +1:18:34 22.5
510 389 Andre CARLOS M 468 M6 50 3:43:26 +1:18:40 22.5
511 473 Bruno MOREL M 469 M5 64 3:43:51 +1:19:05 22.5
512 398 Philippe VIGNERIE M 470 M7 30 CYCLOCLUB DE PRINGY 3:43:53 +1:19:07 22.5
513 282 Guillaume ZANINI M 471 M3 45 3:43:56 +1:19:10 22.5
514 170 Oliver SCHLOTTMANN M 472 M5 65 3:44:09 +1:19:23 22.4
515 311 Pascal BRUEL M 473 M6 51 3:44:47 +1:20:01 22.4
516 108 Daniel BOUCHET M 474 M7 31 BICYCLETTE CLUB GRAVESON 3:44:47 +1:20:01 22.4
517 380 Bruno PELISSIER M 475 M6 52 3:45:21 +1:20:35 22.3
518 193 Olivier ONFRAY M 476 M4 70 ACC 3:45:26 +1:20:40 22.3
519 297 Anne-Sophie LENVAIN F 43 A3 16 3:47:14 +1:22:28 22.1
520 1102 Emmanuel NDOFUNSU M 477 M1 116 3:47:47 +1:23:01 22.1
521 1108 Etienne JAHNS M 478 M1 117 3:47:47 +1:23:01 22.1
522 180 Lionel GROLIÈRE M 479 M4 71 3:48:09 +1:23:23 22
523 385 Yves HANNOUN M 480 M7 32 3:49:07 +1:24:21 21.9
524 409 Patrick MORRELL M 481 M1 118 3:52:03 +1:27:17 21.7
525 220 David JONNES M 482 M8 26 3:52:10 +1:27:24 21.7
526 222 Neil CANTRELL M 483 M3 46 DEVIZES TOWN CYCLING CLUB 3:52:10 +1:27:24 21.7
527 426 Julien SALA-MOLINS M 484 M6 53 3:53:10 +1:28:24 21.6
528 408 Nicholas MORRELL M 485 M9 15 3:53:19 +1:28:33 21.6
529 557 Francis LANGLOIS M 486 M8 27 CYCLO CLUB LASCOURS 3:54:10 +1:29:24 21.5
530 637 Bruno BURCHERI M 487 M5 66 3:54:24 +1:29:38 21.5
531 184 Thomas KMIECKOWIAK M 488 M5 67 3:54:52 +1:30:06 21.4
532 221 Lionel GAMARRA M 489 M4 72 3:56:24 +1:31:38 21.3
533 1271 Thomas DESPOIS M 490 M1 119 3:56:33 +1:31:47 21.3
534 270 Alain LEPOT M 491 M7 33 YVONNE RICHAUD 3:56:57 +1:32:11 21.2
535 1275 Tristan DE LUSSY M 492 M1 120 3:58:31 +1:33:45 21.1
536 252 Marilen CALLEJA F 44 A2 11 ENFORME! 3:58:35 +1:33:49 21.1
537 185 Christine BATIFOL F 45 A4 11 3:58:35 +1:33:49 21.1
538 237 Patrice SOLINAS M 493 M4 73 3:59:03 +1:34:17 21
539 217 Armel DJE BI M 494 M2 56 3:59:08 +1:34:22 21
540 673 Robert EGIO M 495 M5 68 4:00:41 +1:35:55 20.9
541 314 Louis TOUCAS M 496 M1 121 4:00:41 +1:35:55 20.9
542 20 Maëva MARTIN F 46 A1 5 4:00:47 +1:36:01 20.9
543 231 Catherine ZANINI F 47 A2 12 4:01:25 +1:36:39 20.8
544 142 Philippe GANAN M 497 M6 54 4:01:36 +1:36:50 20.8
545 140 Eric GANAN M 498 M6 55 4:01:36 +1:36:50 20.8
546 679 Elisabeth VAN AGT F 48 A5 4 TCW 4:02:24 +1:37:38 20.7
547 150 Arnaud PARTURIER M 499 M5 69 4:03:18 +1:38:32 20.7
548 631 Nadine DUMEZ F 49 M1 122 4:03:56 +1:39:10 20.6
549 273 Yoann BUZON M 500 M2 57 4:05:40 +1:40:54 20.5
550 163 Claude VINCENT M 501 M9 16 VC LA POMME MARSEILLE 4:07:42 +1:42:56 20.3
551 182 Jean Pierre GILQUIN M 502 M8 28 LA POMME MARSEILLE 4:07:42 +1:42:56 20.3
552 490 Alain VUILLEMIN M 503 M6 56 4:13:26 +1:48:40 19.8
553 266 Thierry SERRA M 504 M5 70 4:13:39 +1:48:53 19.8
554 630 Thomas KAUFFMANN M 505 M1 123 4:14:00 +1:49:14 19.8
555 461 Laurence EXBRAYAT F 50 A4 12 RUNNINGSTONES 4:15:36 +1:50:50 19.7
556 519 Regine DIDIER F 51 A4 13 SIX FOURS TRIATHLON 4:21:25 +1:56:39 19.2
557 334 Sylvie GRIFFITHS F 52 A5 5 4:33:46 +2:09:00 18.4
DNF 152 Thierry MARTHE M M6
DNF 561 Philippe COUTY M M5
a.k. 1178 Marine SALARIS F A1 ROUSSET TRIATHLON n/a
a.k. 145 Patrice PINAT M M4
a.k. 585 Stephane LUZEL M M4 LUZEL n/a
a.k. 514 Newt MINARD F A1 TRIATHL`AIX n/a
a.k. 283 Pascal HUCKO M M5 GFNY MONT VENTOUX n/a
a.k. 280 Pascal DEHAIS M M7